Time;durP1;ratioP1;P1;durP2;ratioP2;P2;SDS_P1;SDS_P2;PMS_P1;PMS_P2;Temp;Humidity;BMP_temperature;BMP_pressure;BME280_temperature;BME280_humidity;BME280_pressure;Samples;Min_cycle;Max_cycle;Signal;HPM_P1;HPM_P2
2021/12/05 00:21:59;;;;;;;10.32;2.22;;;4.30;99.90;;;;;;4916632;28;89427;-77
2021/12/05 00:24:35;;;;;;;9.30;2.13;;;4.40;99.90;;;;;;4936864;28;92985;-77
2021/12/05 00:27:08;;;;;;;11.13;2.10;;;4.30;99.90;;;;;;4938274;28;89864;-77
2021/12/05 05:01:16;;;;;;;3.03;1.15;;;3.60;99.90;;;;;;5506550;23;90505;-77
2021/12/05 05:03:42;;;;;;;5.72;1.58;;;3.70;99.90;;;;;;4940739;28;89643;-77
2021/12/05 05:06:13;;;;;;;3.70;1.30;;;3.70;99.90;;;;;;4941225;28;89441;-77
2021/12/05 05:08:39;;;;;;;3.83;1.10;;;3.70;99.90;;;;;;4941355;28;90169;-77
2021/12/05 05:11:08;;;;;;;5.13;1.58;;;3.70;99.90;;;;;;4941451;28;89318;-78
2021/12/05 05:13:35;;;;;;;4.82;1.30;;;3.70;99.90;;;;;;4941413;28;89673;-78
2021/12/05 05:16:03;;;;;;;7.97;1.52;;;3.70;99.90;;;;;;4940415;28;90335;-77
2021/12/05 05:18:37;;;;;;;3.78;1.30;;;3.70;99.90;;;;;;4940998;28;89450;-77
2021/12/05 05:39:56;;;;;;;5.95;1.70;;;3.50;99.90;;;;;;4940403;28;89413;-77
2021/12/05 05:47:55;;;;;;;5.15;2.10;;;3.40;99.90;;;;;;4937883;28;89967;-77
2021/12/05 05:50:21;;;;;;;7.90;2.50;;;3.30;99.90;;;;;;4938789;28;93333;-77
2021/12/05 05:52:48;;;;;;;10.50;2.20;;;3.30;99.90;;;;;;4939348;28;89400;-77
2021/12/05 05:55:14;;;;;;;10.48;2.58;;;3.30;99.90;;;;;;4940295;28;89365;-77
2021/12/05 05:57:46;;;;;;;5.28;1.88;;;3.30;99.90;;;;;;4939232;28;93142;-77
2021/12/05 06:00:20;;;;;;;8.63;2.08;;;3.30;99.90;;;;;;4940650;28;88927;-77
2021/12/05 06:05:33;;;;;;;7.70;2.10;;;3.30;99.90;;;;;;4941615;28;89441;-77
2021/12/05 06:07:58;;;;;;;7.05;1.80;;;3.30;99.90;;;;;;4946959;28;90912;-77
2021/12/05 06:10:26;;;;;;;10.32;2.50;;;3.30;99.90;;;;;;4957418;28;90614;-77
2021/12/05 06:12:53;;;;;;;8.15;2.55;;;3.30;99.90;;;;;;4947813;28;89166;-77
2021/12/05 06:15:21;;;;;;;10.80;2.92;;;3.30;99.90;;;;;;4940858;28;90287;-77
2021/12/05 06:17:46;;;;;;;7.55;2.67;;;3.20;99.90;;;;;;4940939;28;89182;-77
2021/12/05 06:20:16;;;;;;;9.85;2.95;;;3.30;99.90;;;;;;4940981;28;89290;-78
2021/12/05 06:22:42;;;;;;;8.77;2.90;;;3.30;99.90;;;;;;4939374;28;89819;-77
2021/12/05 06:25:12;;;;;;;10.90;3.28;;;3.30;99.90;;;;;;4940113;28;92391;-77
2021/12/05 06:27:38;;;;;;;8.85;2.83;;;3.30;99.90;;;;;;4941336;28;89963;-77
2021/12/05 06:30:13;;;;;;;8.13;2.58;;;3.20;99.90;;;;;;4940665;28;89472;-77
2021/12/05 06:48:37;;;;;;;5.57;2.15;;;3.20;99.90;;;;;;4941819;28;89752;-76
2021/12/05 06:51:03;;;;;;;5.97;2.08;;;3.20;99.90;;;;;;4942718;28;89171;-77
2021/12/05 06:53:30;;;;;;;9.05;2.10;;;3.20;99.90;;;;;;4940486;28;89335;-78
2021/12/05 06:55:56;;;;;;;5.35;1.92;;;3.20;99.90;;;;;;4941921;28;89390;-77
2021/12/05 06:58:22;;;;;;;6.10;2.10;;;3.20;99.90;;;;;;4941361;28;91388;-77
2021/12/05 07:00:47;;;;;;;6.28;1.83;;;3.20;99.90;;;;;;4940249;28;92748;-78
2021/12/05 07:03:14;;;;;;;8.48;2.25;;;3.20;99.90;;;;;;4938971;28;89299;-77
2021/12/05 07:05:53;;;;;;;7.90;3.17;;;3.20;99.90;;;;;;4939122;28;90201;-78
2021/12/05 07:08:21;;;;;;;6.43;2.83;;;3.30;99.90;;;;;;4939623;28;89456;-77
2021/12/05 07:18:51;;;;;;;5.00;2.28;;;3.20;99.90;;;;;;4939668;28;89608;-77
2021/12/05 07:23:49;;;;;;;6.55;2.38;;;3.20;99.90;;;;;;4938826;28;90136;-78
2021/12/05 07:42:40;;;;;;;4.90;1.75;;;3.40;99.90;;;;;;4939247;28;89372;-78
2021/12/05 07:45:07;;;;;;;6.35;1.75;;;3.40;99.90;;;;;;4938856;28;89253;-78
2021/12/05 07:47:34;;;;;;;5.43;1.75;;;3.40;99.90;;;;;;4938471;28;89329;-77
2021/12/05 07:50:07;;;;;;;6.90;1.85;;;3.50;99.90;;;;;;4938332;28;90909;-78
2021/12/05 07:52:37;;;;;;;5.00;1.73;;;3.50;99.90;;;;;;4938248;28;89664;-78
2021/12/05 07:55:13;;;;;;;6.75;1.83;;;3.50;99.90;;;;;;4938539;28;89205;-77
2021/12/05 07:57:59;;;;;;;2.63;1.48;;;3.50;99.90;;;;;;4936981;28;92593;-78
2021/12/05 08:00:37;;;;;;;7.65;1.90;;;3.50;99.90;;;;;;4936543;28;91665;-78
2021/12/05 08:16:48;;;;;;;6.10;1.60;;;4.20;99.90;;;;;;4938513;28;90127;-78
2021/12/05 08:19:14;;;;;;;3.95;1.75;;;4.20;99.90;;;;;;4938222;28;91319;-78
2021/12/05 08:21:40;;;;;;;4.22;1.65;;;4.30;99.90;;;;;;4938746;28;90447;-78
2021/12/05 08:24:06;;;;;;;5.63;1.63;;;4.30;99.90;;;;;;4938356;28;89283;-79
2021/12/05 08:26:34;;;;;;;5.75;1.35;;;4.30;99.90;;;;;;4938688;28;89150;-78
2021/12/05 08:29:14;;;;;;;5.00;1.13;;;4.30;99.90;;;;;;4936749;28;92276;-78
2021/12/05 09:25:14;;;;;;;5.65;1.83;;;4.10;99.90;;;;;;4939752;28;90084;-78
2021/12/05 10:03:08;;;;;;;4.55;1.70;;;4.20;99.90;;;;;;4941886;28;90092;-79
2021/12/05 10:11:23;;;;;;;6.30;1.75;;;4.40;99.90;;;;;;4940376;28;89532;-79
2021/12/05 10:14:18;;;;;;;4.88;1.75;;;4.40;99.90;;;;;;4939725;28;89289;-79
2021/12/05 10:38:49;;;;;;;2.60;1.27;;;5.90;99.90;;;;;;4942443;28;89464;-81
2021/12/05 10:43:59;;;;;;;3.97;1.35;;;6.30;99.90;;;;;;4939556;28;89549;-77
2021/12/05 10:46:26;;;;;;;7.63;2.00;;;6.50;99.90;;;;;;4939692;28;89712;-77
2021/12/05 10:49:00;;;;;;;3.83;2.20;;;6.60;99.90;;;;;;4941118;28;89706;-78
2021/12/05 10:51:29;;;;;;;4.25;1.30;;;6.50;99.90;;;;;;4940047;28;90346;-78
2021/12/05 10:53:56;;;;;;;4.07;1.38;;;6.40;99.90;;;;;;4939407;28;89369;-78
2021/12/05 10:56:24;;;;;;;5.60;2.10;;;6.40;99.90;;;;;;4939709;28;90807;-79
2021/12/05 10:59:09;;;;;;;4.35;1.50;;;6.60;99.90;;;;;;4938118;28;93006;-78
2021/12/05 11:01:45;;;;;;;3.83;1.90;;;6.60;99.90;;;;;;4937928;28;91624;-78
2021/12/05 11:04:12;;;;;;;5.45;1.70;;;6.60;99.90;;;;;;4939056;28;89867;-79
2021/12/05 11:06:44;;;;;;;3.72;1.88;;;6.60;99.90;;;;;;4939928;28;89315;-79
2021/12/05 11:09:16;;;;;;;4.90;1.60;;;6.60;99.90;;;;;;4939753;28;89249;-77
2021/12/05 11:11:46;;;;;;;8.07;2.95;;;6.90;99.90;;;;;;4940936;28;90444;-77
2021/12/05 11:14:21;;;;;;;12.18;4.72;;;6.90;99.90;;;;;;4939997;28;89850;-83
2021/12/05 11:17:06;;;;;;;21.63;9.48;;;6.80;99.90;;;;;;4939875;28;89369;-77
2021/12/05 11:19:44;;;;;;;19.27;9.50;;;6.70;99.90;;;;;;4939215;28;89675;-80
2021/12/05 11:22:24;;;;;;;50.13;22.02;;;6.40;99.90;;;;;;4937905;28;90958;-77
2021/12/05 11:25:12;;;;;;;42.75;20.15;;;6.20;99.90;;;;;;4938783;28;90107;-76
2021/12/05 11:27:43;;;;;;;18.55;9.40;;;5.80;99.90;;;;;;4939702;28;89672;-76
2021/12/05 11:30:14;;;;;;;16.48;9.45;;;5.60;99.90;;;;;;4937571;28;92144;-77
2021/12/05 11:32:57;;;;;;;52.30;31.83;;;5.30;99.90;;;;;;4939113;28;90370;-77
2021/12/05 11:35:31;;;;;;;13.40;7.40;;;5.20;99.90;;;;;;4937991;28;89266;-77
2021/12/05 11:38:05;;;;;;;16.48;11.75;;;5.20;99.90;;;;;;4938773;28;89203;-77
2021/12/05 11:40:48;;;;;;;16.08;10.98;;;5.30;99.90;;;;;;4937106;28;89710;-77
2021/12/05 11:43:19;;;;;;;20.45;18.25;;;5.50;99.90;;;;;;4937019;28;92288;-77
2021/12/05 11:45:55;;;;;;;1.63;1.10;;;5.60;99.90;;;;;;4936382;28;91806;-77
2021/12/05 11:48:31;;;;;;;1.30;0.80;;;5.60;99.90;;;;;;4938311;28;90591;-77
2021/12/05 11:50:59;;;;;;;1.45;0.98;;;5.50;99.90;;;;;;4938246;28;93448;-77
2021/12/05 11:53:39;;;;;;;1.83;0.77;;;5.20;99.90;;;;;;4938388;28;91510;-77
2021/12/05 11:56:07;;;;;;;1.25;0.55;;;5.10;99.90;;;;;;4938834;28;89361;-77
2021/12/05 11:58:32;;;;;;;1.90;0.73;;;4.90;99.90;;;;;;4937484;28;89231;-77
2021/12/05 12:01:10;;;;;;;1.42;0.60;;;4.80;99.90;;;;;;4938226;28;89357;-77
2021/12/05 12:03:37;;;;;;;1.73;0.80;;;4.60;99.90;;;;;;4938372;28;90624;-76
2021/12/05 12:06:03;;;;;;;1.20;0.60;;;4.50;99.90;;;;;;4938852;28;89448;-77
2021/12/05 12:08:29;;;;;;;2.92;0.98;;;4.50;99.90;;;;;;4938795;28;89272;-76
2021/12/05 12:11:00;;;;;;;2.38;0.70;;;4.50;99.90;;;;;;4938462;28;90204;-77
2021/12/05 12:13:30;;;;;;;2.85;1.00;;;4.60;99.90;;;;;;4936658;28;92317;-77
2021/12/05 12:15:59;;;;;;;3.10;0.88;;;4.60;99.90;;;;;;4936817;28;93708;-77
2021/12/05 12:18:31;;;;;;;2.42;0.90;;;4.60;99.90;;;;;;4937203;28;89286;-76
2021/12/05 12:21:00;;;;;;;2.47;1.42;;;4.50;99.90;;;;;;4938551;28;89939;-77
2021/12/05 12:23:26;;;;;;;2.90;1.50;;;4.40;99.90;;;;;;4937145;28;91924;-77
2021/12/05 12:25:54;;;;;;;3.78;1.92;;;4.50;99.90;;;;;;4942339;28;90657;-76
2021/12/05 12:28:21;;;;;;;6.32;2.20;;;4.50;99.90;;;;;;4945283;28;89329;-76
2021/12/05 12:30:55;;;;;;;5.85;1.45;;;4.60;99.90;;;;;;4937824;28;91395;-77
2021/12/05 12:33:26;;;;;;;6.00;1.80;;;4.70;99.90;;;;;;4939146;28;89277;-77
2021/12/05 12:35:51;;;;;;;2.92;0.90;;;4.70;99.90;;;;;;4941556;28;90204;-77
2021/12/05 12:38:22;;;;;;;2.28;1.17;;;4.70;99.90;;;;;;4941392;28;90265;-77
2021/12/05 12:40:54;;;;;;;0.95;0.77;;;4.70;99.90;;;;;;4941393;28;90093;-77
2021/12/05 12:43:46;;;;;;;2.85;0.70;;;4.60;99.90;;;;;;4941535;28;89236;-77
2021/12/05 12:46:31;;;;;;;3.60;0.70;;;4.70;99.90;;;;;;4941718;28;89993;-77
2021/12/05 12:49:14;;;;;;;3.30;0.60;;;4.70;99.90;;;;;;4940159;28;89357;-76
2021/12/05 12:51:43;;;;;;;3.33;0.98;;;4.70;99.90;;;;;;4941417;28;90023;-77
2021/12/05 12:54:31;;;;;;;4.55;0.90;;;4.60;99.90;;;;;;4940884;28;90182;-77
2021/12/05 12:57:19;;;;;;;1.42;0.65;;;4.50;99.90;;;;;;4940272;28;91632;-77
2021/12/05 13:00:11;;;;;;;3.88;0.98;;;4.60;99.90;;;;;;4939921;28;89359;-77
2021/12/05 13:11:20;;;;;;;5.07;2.92;;;5.30;99.90;;;;;;4940371;28;89193;-77
2021/12/05 13:13:57;;;;;;;2.65;1.50;;;5.50;99.90;;;;;;4941164;28;90276;-77
2021/12/05 13:16:28;;;;;;;1.25;0.82;;;5.80;99.90;;;;;;4939489;28;93478;-77
2021/12/05 13:19:05;;;;;;;6.25;4.55;;;6.00;99.90;;;;;;4941174;28;89271;-76
2021/12/05 13:21:42;;;;;;;5.55;2.03;;;5.90;99.90;;;;;;4939592;28;89411;-77
2021/12/05 13:24:25;;;;;;;10.43;6.03;;;5.90;99.90;;;;;;4939835;28;93624;-77
2021/12/05 13:26:53;;;;;;;4.43;1.85;;;5.80;99.90;;;;;;4941208;28;89384;-77
2021/12/05 13:29:21;;;;;;;13.57;10.63;;;5.70;99.90;;;;;;4940848;28;89783;-77
2021/12/05 13:32:02;;;;;;;39.03;31.05;;;5.80;99.90;;;;;;4938476;28;90345;-77
2021/12/05 13:34:50;;;;;;;6.10;3.78;;;5.80;99.90;;;;;;4938864;28;92869;-78
2021/12/05 13:37:27;;;;;;;6.13;3.20;;;5.60;99.90;;;;;;4941490;28;89363;-77
2021/12/05 13:40:12;;;;;;;3.70;2.40;;;5.60;99.90;;;;;;4941960;28;90060;-77
2021/12/05 13:42:46;;;;;;;9.38;4.40;;;5.70;99.90;;;;;;4941932;28;89216;-78
2021/12/05 13:45:27;;;;;;;2.72;1.10;;;5.80;99.90;;;;;;4939411;28;91926;-77
2021/12/05 13:47:52;;;;;;;2.30;1.15;;;5.80;99.90;;;;;;4942048;28;90292;-78
2021/12/05 13:52:53;;;;;;;28.30;13.63;;;5.70;99.90;;;;;;4939850;28;89289;-77
2021/12/05 13:55:39;;;;;;;13.50;6.38;;;5.80;99.90;;;;;;4939590;28;90093;-77
2021/12/05 13:58:34;;;;;;;3.10;1.10;;;5.80;99.90;;;;;;4939638;28;90164;-78
2021/12/05 14:01:26;;;;;;;2.28;0.80;;;5.80;99.90;;;;;;4935978;28;91003;-78
2021/12/05 14:03:57;;;;;;;3.78;2.40;;;5.70;99.90;;;;;;4933020;28;89273;-78
2021/12/05 14:06:43;;;;;;;5.82;3.28;;;5.60;99.90;;;;;;4927812;28;91570;-79
2021/12/05 14:09:15;;;;;;;5.57;1.40;;;5.70;99.90;;;;;;4936193;28;92868;-78
2021/12/05 14:12:02;;;;;;;4.47;3.85;;;5.60;99.90;;;;;;4940250;28;89219;-77
2021/12/05 14:14:59;;;;;;;5.97;5.05;;;5.50;99.90;;;;;;4942452;28;89346;-78
2021/12/05 14:17:28;;;;;;;3.25;2.55;;;5.30;99.90;;;;;;4938848;28;89986;-79
2021/12/05 14:20:03;;;;;;;3.05;1.95;;;5.20;99.90;;;;;;4939739;28;90121;-78
2021/12/05 14:22:32;;;;;;;2.55;1.38;;;5.10;99.90;;;;;;4928510;28;89164;-78
2021/12/05 14:25:01;;;;;;;3.50;1.10;;;5.00;99.90;;;;;;4924311;28;90341;-78
2021/12/05 14:27:31;;;;;;;2.50;1.15;;;4.90;99.90;;;;;;4941138;28;91948;-77
2021/12/05 14:29:58;;;;;;;3.33;1.20;;;4.80;99.90;;;;;;4937058;28;89895;-78
2021/12/05 14:32:36;;;;;;;3.70;1.23;;;4.70;99.90;;;;;;4934963;28;89683;-75
2021/12/05 14:35:11;;;;;;;1.83;1.25;;;4.80;99.90;;;;;;4939667;28;89299;-77
2021/12/05 14:37:43;;;;;;;2.45;1.40;;;4.80;99.90;;;;;;4940242;28;91785;-75
2021/12/05 14:40:18;;;;;;;3.75;1.48;;;4.80;99.90;;;;;;4939916;28;92588;-76
2021/12/05 14:42:48;;;;;;;4.65;1.90;;;4.90;99.90;;;;;;4941296;28;90624;-76
2021/12/05 14:45:23;;;;;;;2.70;1.63;;;4.90;99.90;;;;;;4921587;28;89283;-76
2021/12/05 14:47:50;;;;;;;7.43;3.80;;;5.00;99.90;;;;;;4920514;28;91544;-76
2021/12/05 14:50:26;;;;;;;8.57;7.00;;;5.00;99.90;;;;;;4920522;28;90895;-75
2021/12/05 14:52:55;;;;;;;12.07;8.23;;;5.00;99.90;;;;;;4938048;28;89629;-76
2021/12/05 14:55:23;;;;;;;11.35;5.97;;;5.10;99.90;;;;;;4926267;28;89365;-77
2021/12/05 14:57:56;;;;;;;5.80;4.40;;;5.10;99.90;;;;;;4942356;28;92640;-77
2021/12/05 15:00:32;;;;;;;9.05;4.55;;;5.10;99.90;;;;;;4940897;28;92514;-78
2021/12/05 15:03:11;;;;;;;8.07;5.22;;;5.00;99.90;;;;;;4943371;28;89222;-78
2021/12/05 15:05:38;;;;;;;10.15;6.45;;;5.00;99.90;;;;;;4940586;28;89330;-77
2021/12/05 15:08:07;;;;;;;7.63;5.72;;;4.90;99.90;;;;;;4923793;28;88940;-77
2021/12/05 15:10:34;;;;;;;23.02;10.75;;;4.80;99.90;;;;;;4923607;28;90282;-78
2021/12/05 15:13:01;;;;;;;19.40;9.30;;;4.60;99.90;;;;;;4922351;28;89345;-76
2021/12/05 15:15:27;;;;;;;12.13;5.93;;;4.50;99.90;;;;;;4922496;28;90123;-77
2021/12/05 15:17:54;;;;;;;9.68;7.10;;;4.30;99.90;;;;;;4922835;28;89392;-77
2021/12/05 15:20:23;;;;;;;5.47;3.22;;;4.20;99.90;;;;;;4930315;28;92638;-76
2021/12/05 15:22:52;;;;;;;6.07;1.95;;;4.10;99.90;;;;;;4942363;28;89212;-76
2021/12/05 15:25:20;;;;;;;3.58;1.95;;;4.00;99.90;;;;;;4925777;28;89959;-75
2021/12/05 15:27:47;;;;;;;12.45;6.05;;;3.90;99.90;;;;;;4932630;28;91462;-75
2021/12/05 15:30:41;;;;;;;6.40;2.88;;;3.90;99.90;;;;;;4923521;28;89252;-75
2021/12/05 15:33:24;;;;;;;3.70;2.00;;;3.80;99.90;;;;;;4930206;28;91370;-75
2021/12/05 15:35:51;;;;;;;2.60;1.95;;;3.80;99.90;;;;;;4938707;28;89177;-75
2021/12/05 15:38:24;;;;;;;3.78;1.38;;;3.60;99.90;;;;;;4923856;28;89159;-74
2021/12/05 15:40:53;;;;;;;4.25;1.67;;;3.50;99.90;;;;;;4910729;28;92261;-75
2021/12/05 15:43:24;;;;;;;3.92;1.80;;;3.40;99.90;;;;;;4920520;28;89415;-76
2021/12/05 15:45:53;;;;;;;3.60;2.30;;;3.30;99.90;;;;;;4918956;28;89568;-76
2021/12/05 15:48:26;;;;;;;4.45;2.38;;;3.10;99.90;;;;;;4932757;28;89195;-76
2021/12/05 15:50:53;;;;;;;3.70;2.55;;;3.00;99.90;;;;;;4933162;28;90894;-76
2021/12/05 15:53:20;;;;;;;5.22;3.10;;;2.90;99.90;;;;;;4934265;28;89319;-75
2021/12/05 15:55:57;;;;;;;6.30;3.65;;;2.70;99.90;;;;;;4934355;28;89318;-77
2021/12/05 15:58:32;;;;;;;5.50;3.30;;;2.50;99.90;;;;;;4923907;28;90289;-77
2021/12/05 16:01:05;;;;;;;5.72;3.17;;;2.40;99.90;;;;;;4935306;28;89408;-77
2021/12/05 16:03:46;;;;;;;5.85;3.20;;;2.30;99.90;;;;;;4929006;28;89167;-77
2021/12/05 16:06:14;;;;;;;6.45;4.38;;;2.20;99.90;;;;;;4937338;28;90340;-77
2021/12/05 16:08:41;;;;;;;7.50;4.97;;;2.10;99.90;;;;;;4942307;28;89722;-78
2021/12/05 16:11:12;;;;;;;7.88;5.68;;;2.10;99.90;;;;;;4940870;28;92972;-77
2021/12/05 16:13:42;;;;;;;7.43;5.32;;;2.10;99.90;;;;;;4927612;28;89456;-77
2021/12/05 16:16:26;;;;;;;6.20;3.80;;;2.10;99.90;;;;;;4940171;28;89286;-77
2021/12/05 16:18:56;;;;;;;8.40;4.68;;;2.10;99.90;;;;;;4923635;28;93167;-76
2021/12/05 16:21:28;;;;;;;7.10;4.00;;;2.10;99.90;;;;;;4923961;28;93060;-77
2021/12/05 16:23:57;;;;;;;7.35;3.72;;;2.00;99.90;;;;;;4943847;28;89749;-77
2021/12/05 16:26:27;;;;;;;8.57;3.72;;;1.80;99.90;;;;;;4934692;28;89232;-77
2021/12/05 16:28:57;;;;;;;7.28;3.63;;;1.60;99.90;;;;;;4924938;28;89365;-76
2021/12/05 16:31:25;;;;;;;13.07;4.07;;;1.50;99.90;;;;;;4924734;28;90291;-76
2021/12/05 16:34:01;;;;;;;9.30;5.10;;;1.30;99.90;;;;;;4924025;28;90523;-76
2021/12/05 16:36:42;;;;;;;8.57;5.20;;;1.30;99.90;;;;;;4932262;28;89176;-76
2021/12/05 16:39:12;;;;;;;12.10;5.82;;;1.20;99.90;;;;;;4932412;28;89946;-76
2021/12/05 16:41:44;;;;;;;12.25;6.80;;;1.10;99.90;;;;;;4939470;28;89791;-76
2021/12/05 16:44:13;;;;;;;9.70;5.30;;;1.10;99.90;;;;;;4932687;28;89974;-76
2021/12/05 16:46:52;;;;;;;9.90;4.47;;;1.00;99.90;;;;;;4939280;28;89373;-76
2021/12/05 16:49:23;;;;;;;9.02;5.00;;;0.90;99.90;;;;;;4924134;28;89206;-76
2021/12/05 16:51:55;;;;;;;8.02;4.90;;;0.80;99.90;;;;;;4921117;28;90399;-76
2021/12/05 16:54:29;;;;;;;9.15;5.53;;;0.70;99.90;;;;;;4920894;28;89816;-76
2021/12/05 16:57:09;;;;;;;9.00;5.93;;;0.70;99.90;;;;;;4934950;28;90264;-76
2021/12/05 16:59:55;;;;;;;11.40;7.13;;;0.60;99.90;;;;;;4924621;28;89858;-76
2021/12/05 17:02:24;;;;;;;11.63;8.10;;;0.60;99.90;;;;;;4924137;28;90474;-77
2021/12/05 17:05:05;;;;;;;21.55;11.00;;;0.50;99.90;;;;;;4933479;28;89342;-77
2021/12/05 17:07:37;;;;;;;23.55;11.93;;;0.40;99.90;;;;;;4940453;28;89407;-76
2021/12/05 17:10:09;;;;;;;23.40;11.90;;;0.30;99.90;;;;;;4940148;28;89713;-76
2021/12/05 17:12:35;;;;;;;17.98;9.68;;;0.20;99.90;;;;;;4928963;28;89557;-77
2021/12/05 17:15:14;;;;;;;17.25;9.35;;;0.20;99.90;;;;;;4936072;28;91148;-77
2021/12/05 17:17:40;;;;;;;19.42;9.65;;;0.10;99.90;;;;;;4931175;28;89872;-77
2021/12/05 17:20:25;;;;;;;17.98;9.70;;;0.10;99.90;;;;;;4922133;28;89751;-78
2021/12/05 17:23:01;;;;;;;16.58;10.48;;;0.10;99.90;;;;;;4922559;28;91493;-79
2021/12/05 17:25:36;;;;;;;20.38;12.32;;;0.20;99.90;;;;;;4937291;28;91216;-79
2021/12/05 17:28:05;;;;;;;18.80;12.60;;;0.20;99.90;;;;;;4923120;28;89340;-79
2021/12/05 17:30:30;;;;;;;23.45;13.95;;;0.20;99.90;;;;;;4920524;28;92053;-78
2021/12/05 17:32:56;;;;;;;30.08;17.00;;;0.40;99.90;;;;;;4921173;28;93297;-77
2021/12/05 17:35:28;;;;;;;29.85;18.98;;;0.50;99.90;;;;;;4922807;28;89344;-76
2021/12/05 17:37:54;;;;;;;28.17;18.42;;;0.60;99.90;;;;;;4920826;28;89266;-78
2021/12/05 17:40:20;;;;;;;29.02;19.10;;;0.80;99.90;;;;;;4923702;28;88926;-77
2021/12/05 17:42:46;;;;;;;33.40;21.20;;;0.90;99.90;;;;;;4925329;28;92878;-77
2021/12/05 17:45:14;;;;;;;34.17;21.27;;;1.00;99.90;;;;;;4927353;28;89894;-78
2021/12/05 17:47:40;;;;;;;30.08;19.23;;;1.10;99.90;;;;;;4921887;28;90295;-80
2021/12/05 17:50:10;;;;;;;31.98;20.55;;;1.10;99.90;;;;;;4924724;28;92989;-78
2021/12/05 17:52:36;;;;;;;42.95;24.98;;;1.10;99.90;;;;;;4943029;28;90136;-80
2021/12/05 17:55:13;;;;;;;33.00;19.15;;;1.10;99.90;;;;;;4940960;28;92293;-80
2021/12/05 17:57:43;;;;;;;38.15;20.75;;;1.00;99.90;;;;;;4930926;28;89362;-80
2021/12/05 18:00:22;;;;;;;35.58;20.90;;;1.00;99.90;;;;;;4923407;28;92866;-79
2021/12/05 18:02:53;;;;;;;38.25;22.35;;;1.00;99.90;;;;;;4922134;28;89699;-80
2021/12/05 18:05:40;;;;;;;38.90;24.33;;;1.00;99.90;;;;;;4922209;28;92835;-79
2021/12/05 18:08:10;;;;;;;43.67;28.40;;;0.90;99.90;;;;;;4925729;28;89239;-78
2021/12/05 18:10:38;;;;;;;46.53;29.95;;;0.80;99.90;;;;;;4922358;28;91861;-81
2021/12/05 18:13:09;;;;;;;55.13;32.10;;;0.80;99.90;;;;;;4925536;28;96424;-78
2021/12/05 18:15:37;;;;;;;43.50;28.35;;;0.70;99.90;;;;;;4942646;28;90709;-74
2021/12/05 18:18:05;;;;;;;28.77;20.58;;;0.70;99.90;;;;;;4941581;28;89149;-77
2021/12/05 18:20:33;;;;;;;28.38;17.52;;;0.60;99.90;;;;;;4940350;28;91338;-77
2021/12/05 18:23:03;;;;;;;25.50;15.98;;;0.70;99.90;;;;;;4924672;28;91634;-75
2021/12/05 18:25:30;;;;;;;18.73;12.77;;;0.60;99.90;;;;;;4921135;28;89595;-77
2021/12/05 18:27:56;;;;;;;21.63;13.43;;;0.50;99.90;;;;;;4922087;28;89544;-75
2021/12/05 18:30:25;;;;;;;20.73;13.07;;;0.50;99.90;;;;;;4921720;28;89862;-75
2021/12/05 18:32:52;;;;;;;16.23;11.38;;;0.50;99.90;;;;;;4922085;28;89232;-75
2021/12/05 18:35:19;;;;;;;20.10;12.90;;;0.50;99.90;;;;;;4922329;28;89490;-76
2021/12/05 18:37:48;;;;;;;17.08;11.60;;;0.60;99.90;;;;;;4922347;28;90121;-75
2021/12/05 18:40:15;;;;;;;21.17;13.35;;;0.70;99.90;;;;;;4923863;28;92728;-75
2021/12/05 18:42:42;;;;;;;20.23;12.82;;;0.80;99.90;;;;;;4938555;28;89301;-75
2021/12/05 18:45:11;;;;;;;17.58;12.07;;;0.90;99.90;;;;;;4920745;28;89878;-75
2021/12/05 18:47:37;;;;;;;23.08;15.27;;;1.00;99.90;;;;;;4932506;28;89200;-75
2021/12/05 18:50:04;;;;;;;25.20;15.68;;;1.20;99.90;;;;;;4932373;28;92864;-75
2021/12/05 18:52:34;;;;;;;26.70;15.85;;;1.20;99.90;;;;;;4940257;28;89916;-75
2021/12/05 18:55:00;;;;;;;34.80;17.98;;;1.30;99.90;;;;;;4922355;28;88901;-75
2021/12/05 18:57:26;;;;;;;39.22;21.02;;;1.40;99.90;;;;;;4922059;28;89194;-75
2021/12/05 19:00:09;;;;;;;51.67;29.25;;;1.50;99.90;;;;;;4921889;28;89701;-75
2021/12/05 19:05:31;;;;;;;31.15;19.38;;;1.50;99.90;;;;;;4920481;28;89290;-78
2021/12/05 19:13:21;;;;;;;35.30;23.08;;;1.60;99.90;;;;;;4925396;28;89514;-75
2021/12/05 19:15:48;;;;;;;39.45;24.33;;;1.50;99.90;;;;;;4931763;28;89676;-75
2021/12/05 19:18:15;;;;;;;39.63;24.05;;;1.60;99.90;;;;;;4920357;28;89792;-75
2021/12/05 19:20:42;;;;;;;35.25;23.90;;;1.60;99.90;;;;;;4935273;28;89267;-75
2021/12/05 19:23:08;;;;;;;38.42;24.42;;;1.60;99.90;;;;;;4923356;28;90396;-75
2021/12/05 19:25:36;;;;;;;35.28;23.13;;;1.60;99.90;;;;;;4932600;28;89476;-75
2021/12/05 19:28:04;;;;;;;31.40;20.75;;;1.70;99.90;;;;;;4930174;28;90584;-75
2021/12/05 19:30:43;;;;;;;35.08;22.38;;;1.80;99.90;;;;;;4924457;28;89754;-75
2021/12/05 19:33:10;;;;;;;56.78;30.55;;;1.70;99.90;;;;;;4934883;28;89306;-75
2021/12/05 19:35:39;;;;;;;39.42;25.27;;;1.70;99.90;;;;;;4924727;28;89378;-75
2021/12/05 19:38:07;;;;;;;34.42;22.05;;;1.70;99.90;;;;;;4938173;28;89234;-75
2021/12/05 19:40:33;;;;;;;34.25;21.58;;;1.70;99.90;;;;;;4923736;28;89330;-74
2021/12/05 19:43:01;;;;;;;45.85;27.33;;;1.70;99.90;;;;;;4934594;28;89319;-74
2021/12/05 19:45:29;;;;;;;40.53;24.20;;;1.80;99.90;;;;;;4923417;28;88818;-74
2021/12/05 19:47:56;;;;;;;26.88;16.67;;;1.80;99.90;;;;;;4927713;28;89574;-75
2021/12/05 19:50:25;;;;;;;30.48;20.05;;;1.80;99.90;;;;;;4919746;28;89799;-74
2021/12/05 19:52:53;;;;;;;35.50;22.02;;;1.70;99.90;;;;;;4925070;28;92293;-75
2021/12/05 19:55:19;;;;;;;35.40;24.27;;;1.80;99.90;;;;;;4917331;28;90512;-75
2021/12/05 19:57:45;;;;;;;34.85;22.23;;;1.80;99.90;;;;;;4919115;28;89318;-74
2021/12/05 20:00:13;;;;;;;24.38;16.95;;;1.90;99.90;;;;;;4920252;28;91168;-76
2021/12/05 20:02:41;;;;;;;22.48;16.33;;;1.80;99.90;;;;;;4931667;28;91914;-75
2021/12/05 20:05:07;;;;;;;20.33;15.05;;;1.80;99.90;;;;;;4930491;28;90749;-75
2021/12/05 20:07:34;;;;;;;23.60;16.27;;;1.80;99.90;;;;;;4936899;28;89620;-75
2021/12/05 20:10:00;;;;;;;20.08;12.82;;;1.80;99.90;;;;;;4937129;28;89080;-75
2021/12/05 20:12:27;;;;;;;20.00;12.68;;;1.80;99.90;;;;;;4937502;28;91029;-75
2021/12/05 20:14:53;;;;;;;21.08;13.88;;;1.80;99.90;;;;;;4938294;28;89861;-74
2021/12/05 20:17:18;;;;;;;23.27;16.00;;;1.80;99.90;;;;;;4936053;28;90324;-75
2021/12/05 20:19:44;;;;;;;21.23;15.00;;;1.90;99.90;;;;;;4938811;28;90179;-74
2021/12/05 20:22:09;;;;;;;20.33;13.93;;;1.90;99.90;;;;;;4936644;28;92863;-74
2021/12/05 20:24:36;;;;;;;17.45;13.05;;;1.80;99.90;;;;;;4938249;28;89239;-75
2021/12/05 20:27:03;;;;;;;19.67;13.90;;;1.80;99.90;;;;;;4938718;28;89254;-75
2021/12/05 20:29:29;;;;;;;17.00;12.77;;;1.80;99.90;;;;;;4937754;28;91548;-74
2021/12/05 20:31:55;;;;;;;20.23;14.63;;;1.80;99.90;;;;;;4938184;28;90231;-75
2021/12/05 20:34:23;;;;;;;23.23;15.68;;;1.80;99.90;;;;;;4937164;28;91417;-75
2021/12/05 20:36:50;;;;;;;23.92;16.77;;;1.80;99.90;;;;;;4936568;28;89542;-74
2021/12/05 20:39:15;;;;;;;26.20;17.77;;;1.80;99.90;;;;;;4937394;28;90928;-75
2021/12/05 20:41:42;;;;;;;21.65;16.25;;;1.80;99.90;;;;;;4936786;28;90902;-75
2021/12/05 20:44:09;;;;;;;29.77;19.70;;;1.90;99.90;;;;;;4937413;28;89465;-75
2021/12/05 20:46:35;;;;;;;45.20;27.08;;;1.90;99.90;;;;;;4937796;28;89229;-75
2021/12/05 20:49:02;;;;;;;52.63;30.25;;;1.80;99.90;;;;;;4937504;28;89883;-76
2021/12/05 20:51:29;;;;;;;39.85;27.10;;;1.80;99.90;;;;;;4935847;28;90487;-75
2021/12/05 20:53:57;;;;;;;38.50;26.35;;;1.70;99.90;;;;;;4937389;28;89850;-75
2021/12/05 20:56:23;;;;;;;42.55;27.52;;;1.70;99.90;;;;;;4940866;28;89161;-75
2021/12/05 20:58:50;;;;;;;39.63;26.10;;;1.70;99.90;;;;;;4941170;28;89884;-75
2021/12/05 21:01:16;;;;;;;33.97;23.00;;;1.70;99.90;;;;;;4939967;28;90428;-75
2021/12/05 21:03:42;;;;;;;38.35;25.33;;;1.70;99.90;;;;;;4940329;28;90877;-75
2021/12/05 21:06:10;;;;;;;35.65;24.67;;;1.70;99.90;;;;;;4940541;28;90102;-75
2021/12/05 21:08:37;;;;;;;34.15;23.38;;;1.80;99.90;;;;;;4940534;28;89570;-75
2021/12/05 21:11:06;;;;;;;34.72;23.13;;;1.90;99.90;;;;;;4940426;28;90131;-75
2021/12/05 21:13:33;;;;;;;33.25;22.35;;;1.90;99.90;;;;;;4940161;28;89760;-75
2021/12/05 21:15:59;;;;;;;33.85;24.02;;;1.90;99.90;;;;;;4940594;28;89238;-76
2021/12/05 21:18:26;;;;;;;32.25;23.75;;;1.90;99.90;;;;;;4940241;28;91463;-75
2021/12/05 21:20:55;;;;;;;32.38;23.23;;;1.90;99.90;;;;;;4940325;28;91415;-75
2021/12/05 21:23:22;;;;;;;32.63;22.45;;;1.90;99.90;;;;;;4936647;28;91960;-76
2021/12/05 21:25:48;;;;;;;30.40;20.58;;;1.90;99.90;;;;;;4940557;28;89371;-75
2021/12/05 21:28:15;;;;;;;26.90;19.08;;;1.90;99.90;;;;;;4938775;28;91587;-75
2021/12/05 21:30:40;;;;;;;27.63;19.17;;;1.90;99.90;;;;;;4939636;28;91686;-75
2021/12/05 21:33:07;;;;;;;25.60;18.10;;;1.90;99.90;;;;;;4940247;28;90796;-75
2021/12/05 21:35:35;;;;;;;23.08;17.40;;;1.90;99.90;;;;;;4938628;28;89197;-75
2021/12/05 21:38:02;;;;;;;22.63;16.85;;;1.90;99.90;;;;;;4940191;28;89240;-75
2021/12/05 21:40:31;;;;;;;22.88;16.60;;;2.00;99.90;;;;;;4940243;28;89501;-75
2021/12/05 21:42:57;;;;;;;23.00;16.55;;;2.00;99.90;;;;;;4939244;28;92489;-76